sensor_id;sensor_type;location;lat;lon;timestamp;temperature;humidity
22321;DHT22;11328;53.928;18.522;2022-08-18T00:02:17;23.80;99.90
22321;DHT22;11328;53.928;18.522;2022-08-18T00:04:55;23.80;99.90
22321;DHT22;11328;53.928;18.522;2022-08-18T00:07:29;23.80;99.90
22321;DHT22;11328;53.928;18.522;2022-08-18T00:09:59;23.80;99.90
22321;DHT22;11328;53.928;18.522;2022-08-18T00:12:31;23.80;99.90
22321;DHT22;11328;53.928;18.522;2022-08-18T00:15:00;23.80;99.90
22321;DHT22;11328;53.928;18.522;2022-08-18T00:17:32;23.80;99.90
22321;DHT22;11328;53.928;18.522;2022-08-18T00:20:00;23.80;99.90
22321;DHT22;11328;53.928;18.522;2022-08-18T00:22:29;23.80;99.90
22321;DHT22;11328;53.928;18.522;2022-08-18T00:24:57;23.80;99.90
22321;DHT22;11328;53.928;18.522;2022-08-18T00:27:27;23.80;99.90
22321;DHT22;11328;53.928;18.522;2022-08-18T00:30:03;23.80;99.90
22321;DHT22;11328;53.928;18.522;2022-08-18T00:32:39;23.80;99.90
22321;DHT22;11328;53.928;18.522;2022-08-18T00:37:57;23.70;99.90
22321;DHT22;11328;53.928;18.522;2022-08-18T00:40:39;23.70;99.90
22321;DHT22;11328;53.928;18.522;2022-08-18T00:43:14;23.70;99.90
22321;DHT22;11328;53.928;18.522;2022-08-18T00:45:45;23.60;99.90
22321;DHT22;11328;53.928;18.522;2022-08-18T00:48:13;23.60;99.90
22321;DHT22;11328;53.928;18.522;2022-08-18T00:50:56;23.60;99.90
22321;DHT22;11328;53.928;18.522;2022-08-18T00:53:57;23.60;99.90
22321;DHT22;11328;53.928;18.522;2022-08-18T00:56:37;23.60;99.90
22321;DHT22;11328;53.928;18.522;2022-08-18T01:02:01;23.60;99.90
22321;DHT22;11328;53.928;18.522;2022-08-18T01:04:39;23.60;99.90
22321;DHT22;11328;53.928;18.522;2022-08-18T01:07:17;23.60;99.90
22321;DHT22;11328;53.928;18.522;2022-08-18T01:09:48;23.50;99.90
22321;DHT22;11328;53.928;18.522;2022-08-18T01:12:18;23.50;99.90
22321;DHT22;11328;53.928;18.522;2022-08-18T01:15:06;23.50;99.90
22321;DHT22;11328;53.928;18.522;2022-08-18T01:17:54;23.50;99.90
22321;DHT22;11328;53.928;18.522;2022-08-18T01:20:48;23.60;99.90
22321;DHT22;11328;53.928;18.522;2022-08-18T01:23:41;23.60;99.90
22321;DHT22;11328;53.928;18.522;2022-08-18T01:26:10;23.60;99.90
22321;DHT22;11328;53.928;18.522;2022-08-18T01:28:42;23.50;99.90
22321;DHT22;11328;53.928;18.522;2022-08-18T01:31:18;23.50;99.90
22321;DHT22;11328;53.928;18.522;2022-08-18T01:33:58;23.60;99.90
22321;DHT22;11328;53.928;18.522;2022-08-18T01:36:27;23.50;99.90
22321;DHT22;11328;53.928;18.522;2022-08-18T01:38:55;23.60;99.90
22321;DHT22;11328;53.928;18.522;2022-08-18T01:41:22;23.60;99.90
22321;DHT22;11328;53.928;18.522;2022-08-18T01:43:58;23.60;99.90
22321;DHT22;11328;53.928;18.522;2022-08-18T01:46:29;23.60;99.90
22321;DHT22;11328;53.928;18.522;2022-08-18T01:49:00;23.60;99.90
22321;DHT22;11328;53.928;18.522;2022-08-18T01:51:31;23.60;99.90
22321;DHT22;11328;53.928;18.522;2022-08-18T01:54:11;23.50;99.90
22321;DHT22;11328;53.928;18.522;2022-08-18T01:56:40;23.50;99.90
22321;DHT22;11328;53.928;18.522;2022-08-18T01:59:08;23.40;99.90
22321;DHT22;11328;53.928;18.522;2022-08-18T02:01:41;23.40;99.90
22321;DHT22;11328;53.928;18.522;2022-08-18T02:04:20;23.40;99.90
22321;DHT22;11328;53.928;18.522;2022-08-18T02:07:04;23.40;99.90
22321;DHT22;11328;53.928;18.522;2022-08-18T02:09:34;23.30;99.90
22321;DHT22;11328;53.928;18.522;2022-08-18T02:12:04;23.20;99.90
22321;DHT22;11328;53.928;18.522;2022-08-18T02:14:34;23.20;99.90
22321;DHT22;11328;53.928;18.522;2022-08-18T02:17:03;23.20;99.90
22321;DHT22;11328;53.928;18.522;2022-08-18T02:19:42;23.20;99.90
22321;DHT22;11328;53.928;18.522;2022-08-18T02:22:17;23.30;99.90
22321;DHT22;11328;53.928;18.522;2022-08-18T02:24:46;23.30;99.90
22321;DHT22;11328;53.928;18.522;2022-08-18T02:27:14;23.30;99.90
22321;DHT22;11328;53.928;18.522;2022-08-18T02:29:41;23.30;99.90
22321;DHT22;11328;53.928;18.522;2022-08-18T02:32:09;23.40;99.90
22321;DHT22;11328;53.928;18.522;2022-08-18T02:34:36;23.40;99.90
22321;DHT22;11328;53.928;18.522;2022-08-18T02:37:04;23.30;99.90
22321;DHT22;11328;53.928;18.522;2022-08-18T02:39:33;23.30;99.90
22321;DHT22;11328;53.928;18.522;2022-08-18T02:42:07;23.30;99.90
22321;DHT22;11328;53.928;18.522;2022-08-18T02:44:35;23.30;99.90
22321;DHT22;11328;53.928;18.522;2022-08-18T02:47:02;23.30;99.90
22321;DHT22;11328;53.928;18.522;2022-08-18T02:49:29;23.20;99.90
22321;DHT22;11328;53.928;18.522;2022-08-18T02:51:56;23.20;99.90
22321;DHT22;11328;53.928;18.522;2022-08-18T02:54:24;23.20;99.90
22321;DHT22;11328;53.928;18.522;2022-08-18T02:56:52;23.20;99.90
22321;DHT22;11328;53.928;18.522;2022-08-18T02:59:21;23.30;99.90
22321;DHT22;11328;53.928;18.522;2022-08-18T03:01:51;23.30;99.90
22321;DHT22;11328;53.928;18.522;2022-08-18T03:04:25;23.30;99.90
22321;DHT22;11328;53.928;18.522;2022-08-18T03:07:01;23.30;99.90
22321;DHT22;11328;53.928;18.522;2022-08-18T03:09:31;23.30;99.90
22321;DHT22;11328;53.928;18.522;2022-08-18T03:12:00;23.30;99.90
22321;DHT22;11328;53.928;18.522;2022-08-18T03:14:28;23.40;99.90
22321;DHT22;11328;53.928;18.522;2022-08-18T03:16:56;23.50;99.90
22321;DHT22;11328;53.928;18.522;2022-08-18T03:19:25;23.50;99.90
22321;DHT22;11328;53.928;18.522;2022-08-18T03:21:56;23.40;99.90
22321;DHT22;11328;53.928;18.522;2022-08-18T03:24:29;23.50;99.90
22321;DHT22;11328;53.928;18.522;2022-08-18T03:26:58;23.50;99.90
22321;DHT22;11328;53.928;18.522;2022-08-18T03:29:27;23.50;99.90
22321;DHT22;11328;53.928;18.522;2022-08-18T03:31:59;23.60;99.90
22321;DHT22;11328;53.928;18.522;2022-08-18T03:34:28;23.50;99.90
22321;DHT22;11328;53.928;18.522;2022-08-18T03:36:55;23.50;99.90
22321;DHT22;11328;53.928;18.522;2022-08-18T03:39:22;23.60;99.90
22321;DHT22;11328;53.928;18.522;2022-08-18T03:41:51;23.60;99.90
22321;DHT22;11328;53.928;18.522;2022-08-18T03:44:28;23.50;99.90
22321;DHT22;11328;53.928;18.522;2022-08-18T03:46:57;23.50;99.90
22321;DHT22;11328;53.928;18.522;2022-08-18T03:49:25;23.40;99.90
22321;DHT22;11328;53.928;18.522;2022-08-18T03:51:53;23.40;99.90
22321;DHT22;11328;53.928;18.522;2022-08-18T03:54:21;23.40;99.90
22321;DHT22;11328;53.928;18.522;2022-08-18T03:56:48;23.40;99.90
22321;DHT22;11328;53.928;18.522;2022-08-18T03:59:20;23.50;99.90
22321;DHT22;11328;53.928;18.522;2022-08-18T04:01:51;23.50;99.90
22321;DHT22;11328;53.928;18.522;2022-08-18T04:04:24;23.40;99.90
22321;DHT22;11328;53.928;18.522;2022-08-18T04:06:58;23.20;99.90
22321;DHT22;11328;53.928;18.522;2022-08-18T04:09:31;23.20;99.90
22321;DHT22;11328;53.928;18.522;2022-08-18T04:12:07;23.20;99.90
22321;DHT22;11328;53.928;18.522;2022-08-18T04:14:45;23.20;99.90
22321;DHT22;11328;53.928;18.522;2022-08-18T04:17:17;23.10;99.90
22321;DHT22;11328;53.928;18.522;2022-08-18T04:19:54;23.10;99.90
22321;DHT22;11328;53.928;18.522;2022-08-18T04:22:22;23.00;99.90
22321;DHT22;11328;53.928;18.522;2022-08-18T04:24:50;22.90;99.90
22321;DHT22;11328;53.928;18.522;2022-08-18T04:27:20;22.90;99.90
22321;DHT22;11328;53.928;18.522;2022-08-18T04:29:48;22.80;99.90
22321;DHT22;11328;53.928;18.522;2022-08-18T04:32:15;22.90;99.90
22321;DHT22;11328;53.928;18.522;2022-08-18T04:34:42;23.00;99.90
22321;DHT22;11328;53.928;18.522;2022-08-18T04:37:10;23.00;99.90
22321;DHT22;11328;53.928;18.522;2022-08-18T04:39:37;23.10;99.90
22321;DHT22;11328;53.928;18.522;2022-08-18T04:42:04;23.00;99.90
22321;DHT22;11328;53.928;18.522;2022-08-18T04:44:32;23.00;99.90
22321;DHT22;11328;53.928;18.522;2022-08-18T04:47:00;23.00;99.90
22321;DHT22;11328;53.928;18.522;2022-08-18T04:49:28;23.10;99.90
22321;DHT22;11328;53.928;18.522;2022-08-18T04:51:57;23.00;99.90
22321;DHT22;11328;53.928;18.522;2022-08-18T04:55:04;23.00;99.90
22321;DHT22;11328;53.928;18.522;2022-08-18T04:57:31;23.10;99.90
22321;DHT22;11328;53.928;18.522;2022-08-18T05:00:03;23.10;99.90
22321;DHT22;11328;53.928;18.522;2022-08-18T05:02:31;23.20;99.90
22321;DHT22;11328;53.928;18.522;2022-08-18T05:04:59;23.20;99.90
22321;DHT22;11328;53.928;18.522;2022-08-18T05:07:29;23.10;99.90
22321;DHT22;11328;53.928;18.522;2022-08-18T05:09:57;23.10;99.90
22321;DHT22;11328;53.928;18.522;2022-08-18T05:12:24;23.00;99.90
22321;DHT22;11328;53.928;18.522;2022-08-18T05:14:53;23.10;99.90
22321;DHT22;11328;53.928;18.522;2022-08-18T05:17:23;23.00;99.90
22321;DHT22;11328;53.928;18.522;2022-08-18T05:19:58;23.10;99.90
22321;DHT22;11328;53.928;18.522;2022-08-18T05:22:27;23.30;99.90
22321;DHT22;11328;53.928;18.522;2022-08-18T05:24:56;23.30;99.90
22321;DHT22;11328;53.928;18.522;2022-08-18T05:27:23;23.40;99.90
22321;DHT22;11328;53.928;18.522;2022-08-18T05:29:50;23.50;99.90
22321;DHT22;11328;53.928;18.522;2022-08-18T05:32:17;23.60;99.90
22321;DHT22;11328;53.928;18.522;2022-08-18T05:35:14;23.60;99.90
22321;DHT22;11328;53.928;18.522;2022-08-18T05:41:14;23.70;99.90
22321;DHT22;11328;53.928;18.522;2022-08-18T05:43:51;23.70;99.90
22321;DHT22;11328;53.928;18.522;2022-08-18T05:46:23;23.70;99.90
22321;DHT22;11328;53.928;18.522;2022-08-18T05:48:57;23.70;99.90
22321;DHT22;11328;53.928;18.522;2022-08-18T05:51:32;23.70;99.90
22321;DHT22;11328;53.928;18.522;2022-08-18T05:54:04;23.70;99.90
22321;DHT22;11328;53.928;18.522;2022-08-18T05:56:54;23.70;99.90
22321;DHT22;11328;53.928;18.522;2022-08-18T05:59:33;23.60;99.90
22321;DHT22;11328;53.928;18.522;2022-08-18T06:02:34;23.60;99.90
22321;DHT22;11328;53.928;18.522;2022-08-18T06:05:12;23.60;99.90
22321;DHT22;11328;53.928;18.522;2022-08-18T06:08:08;23.70;99.90
22321;DHT22;11328;53.928;18.522;2022-08-18T06:10:41;23.60;99.90
22321;DHT22;11328;53.928;18.522;2022-08-18T06:13:13;23.60;99.90
22321;DHT22;11328;53.928;18.522;2022-08-18T06:27:11;23.50;99.90
22321;DHT22;11328;53.928;18.522;2022-08-18T06:30:21;23.70;99.90
22321;DHT22;11328;53.928;18.522;2022-08-18T06:36:23;23.70;99.90
22321;DHT22;11328;53.928;18.522;2022-08-18T06:41:52;23.80;99.90
22321;DHT22;11328;53.928;18.522;2022-08-18T06:44:36;23.90;99.90
22321;DHT22;11328;53.928;18.522;2022-08-18T06:50:31;24.10;99.90
22321;DHT22;11328;53.928;18.522;2022-08-18T06:53:09;24.20;99.90
22321;DHT22;11328;53.928;18.522;2022-08-18T06:55:53;24.20;99.90
22321;DHT22;11328;53.928;18.522;2022-08-18T06:58:25;24.20;99.90
22321;DHT22;11328;53.928;18.522;2022-08-18T07:01:00;24.40;99.90
22321;DHT22;11328;53.928;18.522;2022-08-18T07:06:06;24.70;99.90
22321;DHT22;11328;53.928;18.522;2022-08-18T07:08:43;24.70;99.90
22321;DHT22;11328;53.928;18.522;2022-08-18T07:13:48;25.20;99.90
22321;DHT22;11328;53.928;18.522;2022-08-18T07:16:38;25.60;99.90
22321;DHT22;11328;53.928;18.522;2022-08-18T07:19:27;25.90;99.90
22321;DHT22;11328;53.928;18.522;2022-08-18T07:22:14;26.30;99.90
22321;DHT22;11328;53.928;18.522;2022-08-18T07:24:49;26.70;99.90
22321;DHT22;11328;53.928;18.522;2022-08-18T07:27:44;27.00;99.90
22321;DHT22;11328;53.928;18.522;2022-08-18T07:35:27;27.70;99.90
22321;DHT22;11328;53.928;18.522;2022-08-18T07:38:02;27.80;99.90
22321;DHT22;11328;53.928;18.522;2022-08-18T07:44:19;28.30;99.90
22321;DHT22;11328;53.928;18.522;2022-08-18T07:46:54;28.50;99.90
22321;DHT22;11328;53.928;18.522;2022-08-18T07:49:30;28.80;99.90
22321;DHT22;11328;53.928;18.522;2022-08-18T07:55:26;29.10;99.90
22321;DHT22;11328;53.928;18.522;2022-08-18T08:06:32;30.00;99.90
22321;DHT22;11328;53.928;18.522;2022-08-18T08:18:44;30.60;99.90
22321;DHT22;11328;53.928;18.522;2022-08-18T08:21:35;30.70;99.90
22321;DHT22;11328;53.928;18.522;2022-08-18T08:24:26;30.80;99.90
22321;DHT22;11328;53.928;18.522;2022-08-18T08:27:16;30.90;99.90
22321;DHT22;11328;53.928;18.522;2022-08-18T08:30:17;31.10;99.90
22321;DHT22;11328;53.928;18.522;2022-08-18T08:33:02;31.20;99.90
22321;DHT22;11328;53.928;18.522;2022-08-18T08:38:51;31.40;99.90
22321;DHT22;11328;53.928;18.522;2022-08-18T08:41:28;31.70;99.90
22321;DHT22;11328;53.928;18.522;2022-08-18T08:47:05;31.80;99.90
22321;DHT22;11328;53.928;18.522;2022-08-18T08:57:40;32.10;99.90
22321;DHT22;11328;53.928;18.522;2022-08-18T09:00:15;32.30;99.90
22321;DHT22;11328;53.928;18.522;2022-08-18T09:12:01;32.90;99.90
22321;DHT22;11328;53.928;18.522;2022-08-18T09:15:11;33.10;99.90
22321;DHT22;11328;53.928;18.522;2022-08-18T09:21:44;33.30;99.90
22321;DHT22;11328;53.928;18.522;2022-08-18T09:24:31;33.30;99.90
22321;DHT22;11328;53.928;18.522;2022-08-18T09:27:22;33.40;99.90
22321;DHT22;11328;53.928;18.522;2022-08-18T09:39:25;33.60;99.90
22321;DHT22;11328;53.928;18.522;2022-08-18T09:42:36;33.80;99.90
22321;DHT22;11328;53.928;18.522;2022-08-18T09:56:14;34.10;99.90
22321;DHT22;11328;53.928;18.522;2022-08-18T10:02:05;34.40;99.90
22321;DHT22;11328;53.928;18.522;2022-08-18T10:04:47;34.20;99.90
22321;DHT22;11328;53.928;18.522;2022-08-18T10:13:39;34.10;99.90
22321;DHT22;11328;53.928;18.522;2022-08-18T10:16:30;34.10;99.90
22321;DHT22;11328;53.928;18.522;2022-08-18T10:22:11;34.40;99.90
22321;DHT22;11328;53.928;18.522;2022-08-18T10:24:59;34.50;99.90
22321;DHT22;11328;53.928;18.522;2022-08-18T10:27:54;34.40;99.90
22321;DHT22;11328;53.928;18.522;2022-08-18T10:33:04;34.00;99.90
22321;DHT22;11328;53.928;18.522;2022-08-18T10:35:53;33.90;99.90
22321;DHT22;11328;53.928;18.522;2022-08-18T10:38:24;34.10;99.90
22321;DHT22;11328;53.928;18.522;2022-08-18T10:41:11;34.20;99.90
22321;DHT22;11328;53.928;18.522;2022-08-18T10:43:48;34.10;99.90
22321;DHT22;11328;53.928;18.522;2022-08-18T10:46:41;34.20;99.90
22321;DHT22;11328;53.928;18.522;2022-08-18T10:58:05;34.20;99.90
22321;DHT22;11328;53.928;18.522;2022-08-18T11:03:34;34.50;99.40
22321;DHT22;11328;53.928;18.522;2022-08-18T11:06:25;34.60;98.40
22321;DHT22;11328;53.928;18.522;2022-08-18T11:08:59;34.60;99.00
22321;DHT22;11328;53.928;18.522;2022-08-18T11:11:35;34.50;98.30
22321;DHT22;11328;53.928;18.522;2022-08-18T11:14:52;34.30;98.40
22321;DHT22;11328;53.928;18.522;2022-08-18T11:17:55;34.10;99.40
22321;DHT22;11328;53.928;18.522;2022-08-18T11:20:36;34.00;98.50
22321;DHT22;11328;53.928;18.522;2022-08-18T11:23:14;34.20;98.10
22321;DHT22;11328;53.928;18.522;2022-08-18T11:25:43;34.20;98.30
22321;DHT22;11328;53.928;18.522;2022-08-18T11:28:18;34.20;97.40
22321;DHT22;11328;53.928;18.522;2022-08-18T11:30:56;34.40;97.20
22321;DHT22;11328;53.928;18.522;2022-08-18T11:33:25;34.30;96.70
22321;DHT22;11328;53.928;18.522;2022-08-18T11:35:57;34.30;96.40
22321;DHT22;11328;53.928;18.522;2022-08-18T11:39:08;34.30;97.20
22321;DHT22;11328;53.928;18.522;2022-08-18T11:41:44;34.40;97.00
22321;DHT22;11328;53.928;18.522;2022-08-18T11:44:37;34.50;96.50
22321;DHT22;11328;53.928;18.522;2022-08-18T11:47:15;34.40;96.80
22321;DHT22;11328;53.928;18.522;2022-08-18T11:50:25;34.40;96.80
22321;DHT22;11328;53.928;18.522;2022-08-18T11:52:53;34.30;96.20
22321;DHT22;11328;53.928;18.522;2022-08-18T11:55:30;34.30;95.70
22321;DHT22;11328;53.928;18.522;2022-08-18T11:58:01;34.30;96.40
22321;DHT22;11328;53.928;18.522;2022-08-18T12:00:56;34.30;95.70
22321;DHT22;11328;53.928;18.522;2022-08-18T12:03:46;34.30;95.50
22321;DHT22;11328;53.928;18.522;2022-08-18T12:06:30;34.30;94.70
22321;DHT22;11328;53.928;18.522;2022-08-18T12:09:05;34.30;95.10
22321;DHT22;11328;53.928;18.522;2022-08-18T12:17:50;34.30;94.10
22321;DHT22;11328;53.928;18.522;2022-08-18T12:20:20;34.10;94.40
22321;DHT22;11328;53.928;18.522;2022-08-18T12:22:48;34.20;94.10
22321;DHT22;11328;53.928;18.522;2022-08-18T12:25:19;34.20;94.20
22321;DHT22;11328;53.928;18.522;2022-08-18T12:27:52;34.10;93.90
22321;DHT22;11328;53.928;18.522;2022-08-18T12:30:19;34.10;94.10
22321;DHT22;11328;53.928;18.522;2022-08-18T12:32:46;34.00;94.20
22321;DHT22;11328;53.928;18.522;2022-08-18T12:35:33;33.90;93.30
22321;DHT22;11328;53.928;18.522;2022-08-18T12:38:01;33.80;93.70
22321;DHT22;11328;53.928;18.522;2022-08-18T12:40:41;33.80;95.00
22321;DHT22;11328;53.928;18.522;2022-08-18T12:43:08;33.80;93.60
22321;DHT22;11328;53.928;18.522;2022-08-18T12:45:36;33.80;93.50
22321;DHT22;11328;53.928;18.522;2022-08-18T12:48:05;33.70;92.80
22321;DHT22;11328;53.928;18.522;2022-08-18T12:50:34;33.80;93.10
22321;DHT22;11328;53.928;18.522;2022-08-18T12:53:22;33.70;93.60
22321;DHT22;11328;53.928;18.522;2022-08-18T12:56:20;33.70;93.80
22321;DHT22;11328;53.928;18.522;2022-08-18T12:58:50;33.80;94.10
22321;DHT22;11328;53.928;18.522;2022-08-18T13:01:19;33.80;94.50
22321;DHT22;11328;53.928;18.522;2022-08-18T13:03:50;33.80;94.30
22321;DHT22;11328;53.928;18.522;2022-08-18T13:06:44;33.80;93.50
22321;DHT22;11328;53.928;18.522;2022-08-18T13:09:26;33.70;93.70
22321;DHT22;11328;53.928;18.522;2022-08-18T13:12:14;33.60;94.00
22321;DHT22;11328;53.928;18.522;2022-08-18T13:14:42;33.60;93.80
22321;DHT22;11328;53.928;18.522;2022-08-18T13:17:14;33.60;93.60
22321;DHT22;11328;53.928;18.522;2022-08-18T13:20:06;33.60;94.10
22321;DHT22;11328;53.928;18.522;2022-08-18T13:22:39;33.60;93.90
22321;DHT22;11328;53.928;18.522;2022-08-18T13:25:10;33.60;93.90
22321;DHT22;11328;53.928;18.522;2022-08-18T13:27:59;33.60;93.50
22321;DHT22;11328;53.928;18.522;2022-08-18T13:30:27;33.60;93.10
22321;DHT22;11328;53.928;18.522;2022-08-18T13:32:59;33.60;93.80
22321;DHT22;11328;53.928;18.522;2022-08-18T13:35:48;33.60;93.30
22321;DHT22;11328;53.928;18.522;2022-08-18T13:38:21;33.60;94.00
22321;DHT22;11328;53.928;18.522;2022-08-18T13:40:56;33.70;93.10
22321;DHT22;11328;53.928;18.522;2022-08-18T13:43:33;33.80;93.30
22321;DHT22;11328;53.928;18.522;2022-08-18T13:46:05;33.70;93.90
22321;DHT22;11328;53.928;18.522;2022-08-18T13:48:35;33.60;93.50
22321;DHT22;11328;53.928;18.522;2022-08-18T13:51:05;33.60;93.50
22321;DHT22;11328;53.928;18.522;2022-08-18T13:53:38;33.50;93.10
22321;DHT22;11328;53.928;18.522;2022-08-18T13:56:23;33.40;93.30
22321;DHT22;11328;53.928;18.522;2022-08-18T13:58:57;33.40;92.60
22321;DHT22;11328;53.928;18.522;2022-08-18T14:01:24;33.40;93.20
22321;DHT22;11328;53.928;18.522;2022-08-18T14:04:12;33.30;92.70
22321;DHT22;11328;53.928;18.522;2022-08-18T14:06:46;33.20;92.20
22321;DHT22;11328;53.928;18.522;2022-08-18T14:09:22;33.10;92.50
22321;DHT22;11328;53.928;18.522;2022-08-18T14:12:16;33.10;92.90
22321;DHT22;11328;53.928;18.522;2022-08-18T14:14:53;33.10;92.60
22321;DHT22;11328;53.928;18.522;2022-08-18T14:17:24;33.10;93.10
22321;DHT22;11328;53.928;18.522;2022-08-18T14:19:52;33.10;92.40
22321;DHT22;11328;53.928;18.522;2022-08-18T14:22:54;33.10;92.60
22321;DHT22;11328;53.928;18.522;2022-08-18T14:25:50;33.10;92.10
22321;DHT22;11328;53.928;18.522;2022-08-18T14:28:35;33.10;92.70
22321;DHT22;11328;53.928;18.522;2022-08-18T14:31:06;33.10;92.40
22321;DHT22;11328;53.928;18.522;2022-08-18T14:33:34;33.10;92.00
22321;DHT22;11328;53.928;18.522;2022-08-18T14:36:18;33.20;92.70
22321;DHT22;11328;53.928;18.522;2022-08-18T14:38:56;33.20;91.80
22321;DHT22;11328;53.928;18.522;2022-08-18T14:41:26;33.20;91.80
22321;DHT22;11328;53.928;18.522;2022-08-18T14:43:54;33.30;92.20
22321;DHT22;11328;53.928;18.522;2022-08-18T14:46:40;33.30;91.90
22321;DHT22;11328;53.928;18.522;2022-08-18T14:49:21;33.30;91.60
22321;DHT22;11328;53.928;18.522;2022-08-18T14:51:57;33.20;91.90
22321;DHT22;11328;53.928;18.522;2022-08-18T14:54:26;33.10;91.80
22321;DHT22;11328;53.928;18.522;2022-08-18T14:56:54;33.20;91.70
22321;DHT22;11328;53.928;18.522;2022-08-18T14:59:21;33.20;91.00
22321;DHT22;11328;53.928;18.522;2022-08-18T15:01:49;33.20;90.90
22321;DHT22;11328;53.928;18.522;2022-08-18T15:04:17;33.30;90.90
22321;DHT22;11328;53.928;18.522;2022-08-18T15:06:46;33.30;90.60
22321;DHT22;11328;53.928;18.522;2022-08-18T15:09:26;33.20;91.10
22321;DHT22;11328;53.928;18.522;2022-08-18T15:11:57;33.20;91.00
22321;DHT22;11328;53.928;18.522;2022-08-18T15:14:27;33.10;91.40
22321;DHT22;11328;53.928;18.522;2022-08-18T15:17:01;33.10;90.90
22321;DHT22;11328;53.928;18.522;2022-08-18T15:19:40;33.10;90.20
22321;DHT22;11328;53.928;18.522;2022-08-18T15:22:26;33.10;90.50
22321;DHT22;11328;53.928;18.522;2022-08-18T15:25:14;33.10;90.40
22321;DHT22;11328;53.928;18.522;2022-08-18T15:28:00;33.10;90.30
22321;DHT22;11328;53.928;18.522;2022-08-18T15:30:27;33.00;90.00
22321;DHT22;11328;53.928;18.522;2022-08-18T15:32:55;33.10;90.30
22321;DHT22;11328;53.928;18.522;2022-08-18T15:35:23;33.00;90.80
22321;DHT22;11328;53.928;18.522;2022-08-18T15:37:52;33.00;90.80
22321;DHT22;11328;53.928;18.522;2022-08-18T15:40:24;33.00;90.30
22321;DHT22;11328;53.928;18.522;2022-08-18T15:43:06;33.00;90.10
22321;DHT22;11328;53.928;18.522;2022-08-18T15:45:38;33.00;90.50
22321;DHT22;11328;53.928;18.522;2022-08-18T15:48:24;32.90;90.30
22321;DHT22;11328;53.928;18.522;2022-08-18T15:50:54;32.80;90.30
22321;DHT22;11328;53.928;18.522;2022-08-18T15:53:24;32.70;90.40
22321;DHT22;11328;53.928;18.522;2022-08-18T15:55:56;32.60;91.10
22321;DHT22;11328;53.928;18.522;2022-08-18T15:58:23;32.60;90.60
22321;DHT22;11328;53.928;18.522;2022-08-18T16:00:54;32.60;90.60
22321;DHT22;11328;53.928;18.522;2022-08-18T16:03:21;32.50;90.50
22321;DHT22;11328;53.928;18.522;2022-08-18T16:05:50;32.50;90.90
22321;DHT22;11328;53.928;18.522;2022-08-18T16:08:21;32.50;91.40
22321;DHT22;11328;53.928;18.522;2022-08-18T16:10:50;32.50;91.50
22321;DHT22;11328;53.928;18.522;2022-08-18T16:13:19;32.60;91.70
22321;DHT22;11328;53.928;18.522;2022-08-18T16:15:46;32.50;91.80
22321;DHT22;11328;53.928;18.522;2022-08-18T16:18:17;32.50;91.20
22321;DHT22;11328;53.928;18.522;2022-08-18T16:20:48;32.50;90.70
22321;DHT22;11328;53.928;18.522;2022-08-18T16:23:18;32.50;91.00
22321;DHT22;11328;53.928;18.522;2022-08-18T16:25:45;32.50;90.70
22321;DHT22;11328;53.928;18.522;2022-08-18T16:28:13;32.50;90.80
22321;DHT22;11328;53.928;18.522;2022-08-18T16:30:40;32.40;90.50
22321;DHT22;11328;53.928;18.522;2022-08-18T16:33:07;32.40;90.90
22321;DHT22;11328;53.928;18.522;2022-08-18T16:35:35;32.40;90.60
22321;DHT22;11328;53.928;18.522;2022-08-18T16:38:08;32.30;90.60
22321;DHT22;11328;53.928;18.522;2022-08-18T16:40:36;32.30;90.80
22321;DHT22;11328;53.928;18.522;2022-08-18T16:43:04;32.20;90.80
22321;DHT22;11328;53.928;18.522;2022-08-18T16:45:32;32.20;90.70
22321;DHT22;11328;53.928;18.522;2022-08-18T16:48:02;32.20;91.20
22321;DHT22;11328;53.928;18.522;2022-08-18T16:50:29;32.10;91.00
22321;DHT22;11328;53.928;18.522;2022-08-18T16:52:57;32.10;91.20
22321;DHT22;11328;53.928;18.522;2022-08-18T16:55:24;32.10;91.20
22321;DHT22;11328;53.928;18.522;2022-08-18T16:57:51;32.10;92.50
22321;DHT22;11328;53.928;18.522;2022-08-18T17:00:41;32.00;93.20
22321;DHT22;11328;53.928;18.522;2022-08-18T17:03:28;31.90;93.40
22321;DHT22;11328;53.928;18.522;2022-08-18T17:06:15;31.90;93.40
22321;DHT22;11328;53.928;18.522;2022-08-18T17:08:44;31.90;93.50
22321;DHT22;11328;53.928;18.522;2022-08-18T17:11:16;31.80;93.60
22321;DHT22;11328;53.928;18.522;2022-08-18T17:13:46;31.70;93.70
22321;DHT22;11328;53.928;18.522;2022-08-18T17:16:15;31.50;94.40
22321;DHT22;11328;53.928;18.522;2022-08-18T17:18:44;31.40;95.20
22321;DHT22;11328;53.928;18.522;2022-08-18T17:21:16;31.30;94.70
22321;DHT22;11328;53.928;18.522;2022-08-18T17:23:46;31.20;95.00
22321;DHT22;11328;53.928;18.522;2022-08-18T17:29:30;31.00;95.40
22321;DHT22;11328;53.928;18.522;2022-08-18T17:32:05;30.90;95.70
22321;DHT22;11328;53.928;18.522;2022-08-18T17:34:39;30.80;95.80
22321;DHT22;11328;53.928;18.522;2022-08-18T17:37:14;30.70;95.10
22321;DHT22;11328;53.928;18.522;2022-08-18T17:39:58;30.60;95.10
22321;DHT22;11328;53.928;18.522;2022-08-18T17:42:31;30.60;95.50
22321;DHT22;11328;53.928;18.522;2022-08-18T17:45:03;30.50;95.30
22321;DHT22;11328;53.928;18.522;2022-08-18T17:50:58;30.40;96.20
22321;DHT22;11328;53.928;18.522;2022-08-18T17:53:53;30.30;96.50
22321;DHT22;11328;53.928;18.522;2022-08-18T17:56:23;30.20;96.20
22321;DHT22;11328;53.928;18.522;2022-08-18T17:59:11;30.20;96.50
22321;DHT22;11328;53.928;18.522;2022-08-18T18:04:59;30.10;96.10
22321;DHT22;11328;53.928;18.522;2022-08-18T18:07:30;30.10;97.00
22321;DHT22;11328;53.928;18.522;2022-08-18T18:15:46;29.90;96.90
22321;DHT22;11328;53.928;18.522;2022-08-18T18:18:19;29.80;97.00
22321;DHT22;11328;53.928;18.522;2022-08-18T18:21:19;29.70;97.60
22321;DHT22;11328;53.928;18.522;2022-08-18T18:26:37;29.40;98.00
22321;DHT22;11328;53.928;18.522;2022-08-18T18:29:30;29.30;98.50
22321;DHT22;11328;53.928;18.522;2022-08-18T18:37:51;29.20;97.70
22321;DHT22;11328;53.928;18.522;2022-08-18T18:41:32;29.20;98.30
22321;DHT22;11328;53.928;18.522;2022-08-18T18:43:42;29.20;98.70
22321;DHT22;11328;53.928;18.522;2022-08-18T18:52:02;29.00;99.30
22321;DHT22;11328;53.928;18.522;2022-08-18T18:55:06;29.00;99.70
22321;DHT22;11328;53.928;18.522;2022-08-18T19:01:06;28.70;99.90
22321;DHT22;11328;53.928;18.522;2022-08-18T19:03:57;28.60;99.90
22321;DHT22;11328;53.928;18.522;2022-08-18T19:07:20;28.60;99.90
22321;DHT22;11328;53.928;18.522;2022-08-18T19:12:59;28.50;99.90